New Hill, North Carolina
Current Conditions -  °F | °C
As of 5:55 PM on Thursday 27 Nov 2014 (Local Time) from KTTA Reporting Station
Overcast Overcast  
Wind Chill: 41°   Ceiling: 7000
Heat Index: 46°   Visibility: 10mi
Dew Point: 33°   Wind: 12mph
Humidity: 59%   Direction: 320°NW
Pressure: 30.15"   Gusts: NA
Location:  35.68°N, 78.94°W
Report Text: KTTA 272255Z AUTO 32010KT 10SM OVC070 08/01 A3015 RMK AO2 T00800005
Loading
Personal Weather Stations






























Interactive Weather Map New forecast layout! Learn more

10-Day Weather Forecast

Advertisements
Track Severe Weather on mobile